Time;durP1;ratioP1;P1;durP2;ratioP2;P2;SDS_P1;SDS_P2;PMS_P1;PMS_P2;Temp;Humidity;BMP_temperature;BMP_pressure;BME280_temperature;BME280_humidity;BME280_pressure;Samples;Min_cycle;Max_cycle;Signal;HPM_P1;HPM_P2
2022/05/10 00:00:50;;;;;;;11.50;5.40;;;;;;;4.15;100.00;100477.37;1746784;81;21134;-60
2022/05/10 00:03:16;;;;;;;11.33;4.85;;;;;;;4.13;100.00;100478.64;1752009;81;21439;-59
2022/05/10 00:05:43;;;;;;;12.13;5.17;;;;;;;4.17;100.00;100475.84;1724208;82;21039;-59
2022/05/10 00:08:12;;;;;;;9.00;4.67;;;;;;;4.19;100.00;100472.39;1745398;81;21487;-59
2022/05/10 00:10:39;;;;;;;9.48;5.08;;;;;;;4.17;100.00;100473.97;1720096;82;21566;-59
2022/05/10 00:13:06;;;;;;;13.83;5.45;;;;;;;4.12;100.00;100476.46;1741377;82;20983;-61
2022/05/10 00:15:32;;;;;;;;;;;;;;;4.11;100.00;100476.14;1748219;82;21035;-59
2022/05/10 00:18:00;;;;;;;;;;;;;;;4.15;100.00;100474.69;1753361;81;20099;-59
2022/05/10 00:20:26;;;;;;;10.23;4.80;;;;;;;4.14;100.00;100474.40;1752122;81;20107;-59
2022/05/10 00:22:53;;;;;;;11.63;5.22;;;;;;;4.13;100.00;100479.47;1748214;81;21489;-60
2022/05/10 00:25:24;;;;;;;9.83;4.33;;;;;;;4.12;100.00;100472.42;1709141;82;21108;-60
2022/05/10 00:27:51;;;;;;;11.30;5.33;;;;;;;4.08;100.00;100471.70;1732871;82;21501;-60
2022/05/10 00:30:19;;;;;;;14.45;5.20;;;;;;;4.08;100.00;100471.19;1739515;82;21483;-59
2022/05/10 00:32:46;;;;;;;11.18;4.92;;;;;;;4.11;100.00;100476.14;1747075;81;21387;-59
2022/05/10 00:35:20;;;;;;;10.55;5.25;;;;;;;4.14;100.00;100470.36;1726225;82;21054;-59
2022/05/10 00:37:49;;;;;;;11.03;5.40;;;;;;;4.14;100.00;100471.70;1751121;82;21484;-59
2022/05/10 00:40:19;;;;;;;11.20;5.10;;;;;;;4.07;100.00;100469.55;1752243;80;21070;-59
2022/05/10 00:43:25;;;;;;;10.90;5.45;;;;;;;4.03;100.00;100466.97;1746204;81;20949;-59
2022/05/10 00:46:05;;;;;;;9.45;4.90;;;;;;;4.04;100.00;100467.25;1751803;80;21130;-58
2022/05/10 00:48:43;;;;;;;11.57;6.10;;;;;;;4.02;100.00;100465.30;1751560;82;21046;-59
2022/05/10 00:51:24;;;;;;;11.15;5.67;;;;;;;3.98;100.00;100464.06;1748501;81;21047;-60
2022/05/10 00:54:08;;;;;;;11.80;5.20;;;;;;;3.94;100.00;100466.87;1748832;81;21620;-59
2022/05/10 00:56:45;;;;;;;13.38;5.90;;;;;;;3.87;100.00;100465.55;1732383;82;21080;-59
2022/05/10 00:59:37;;;;;;;10.63;5.50;;;;;;;3.85;100.00;100472.19;1738984;82;21118;-59
2022/05/10 01:02:27;;;;;;;10.90;5.78;;;;;;;3.87;100.00;100466.89;1736427;80;21555;-59
2022/05/10 01:04:57;;;;;;;10.72;5.40;;;;;;;3.86;100.00;100465.22;1747486;81;21041;-60
2022/05/10 01:07:29;;;;;;;13.38;6.33;;;;;;;3.82;100.00;100473.95;1750076;81;20998;-59
2022/05/10 01:10:08;;;;;;;14.33;6.72;;;;;;;3.76;100.00;100470.22;1748371;80;21566;-59
2022/05/10 01:13:09;;;;;;;16.15;6.50;;;;;;;3.69;100.00;100472.09;1644465;84;21068;-59
2022/05/10 01:15:36;;;;;;;14.95;7.12;;;;;;;3.68;100.00;100469.62;1667010;84;21095;-59
2022/05/10 01:18:03;;;;;;;15.23;8.03;;;;;;;3.72;100.00;100468.98;1689957;84;21022;-59
2022/05/10 01:20:38;;;;;;;16.67;8.38;;;;;;;3.74;100.00;100462.05;1699117;83;21539;-59
2022/05/10 01:23:20;;;;;;;14.75;7.55;;;;;;;3.71;100.00;100464.66;1680120;84;21096;-59
2022/05/10 01:26:06;;;;;;;18.07;8.58;;;;;;;3.65;100.00;100461.97;1666131;83;21427;-58
2022/05/10 01:28:40;;;;;;;18.43;8.77;;;;;;;3.58;100.00;100466.54;1745510;80;21040;-59
2022/05/10 01:31:14;;;;;;;17.90;9.13;;;;;;;3.54;100.00;100460.75;1743678;81;21027;-59
2022/05/10 01:33:48;;;;;;;20.25;9.95;;;;;;;3.59;100.00;100469.52;1748943;81;20991;-60
2022/05/10 01:36:45;;;;;;;19.57;9.40;;;;;;;3.60;100.00;100469.33;1742863;81;21038;-59
2022/05/10 01:39:30;;;;;;;18.32;9.35;;;;;;;3.54;100.00;100464.78;1750981;80;21089;-59
2022/05/10 01:42:05;;;;;;;22.55;11.70;;;;;;;3.45;100.00;100466.02;1739103;81;21105;-59
2022/05/10 01:44:50;;;;;;;26.17;13.32;;;;;;;3.36;100.00;100463.23;1749334;81;21040;-59
2022/05/10 01:47:31;;;;;;;21.77;11.08;;;;;;;3.36;100.00;100468.10;1747814;81;21065;-60
2022/05/10 01:50:23;;;;;;;23.10;11.63;;;;;;;3.40;100.00;100461.79;1714096;82;21561;-60
2022/05/10 01:53:20;;;;;;;22.13;12.18;;;;;;;3.40;100.00;100469.31;1710695;82;21031;-59
2022/05/10 01:55:49;;;;;;;;;;;;;;;3.38;100.00;100468.71;1740537;80;21094;-58
2022/05/10 01:58:20;;;;;;;25.40;13.38;;;;;;;3.29;100.00;100459.71;1744289;81;20670;-59
2022/05/10 02:00:54;;;;;;;25.17;12.13;;;;;;;3.18;100.00;100461.16;1742268;81;21100;-59
2022/05/10 02:03:37;;;;;;;30.12;13.83;;;;;;;3.20;100.00;100465.80;1706781;81;21059;-59
2022/05/10 02:06:38;;;;;;;21.75;12.82;;;;;;;3.25;100.00;100463.84;1685303;83;21122;-58
2022/05/10 02:09:18;;;;;;;23.50;12.88;;;;;;;3.25;100.00;100461.98;1740141;81;21026;-59
2022/05/10 02:12:00;;;;;;;29.00;13.05;;;;;;;3.17;100.00;100460.84;1739264;82;21557;-59
2022/05/10 02:14:50;;;;;;;27.82;14.50;;;;;;;3.10;100.00;100468.08;1645091;83;21023;-59
2022/05/10 02:17:37;;;;;;;28.25;13.75;;;;;;;3.05;100.00;100459.78;1674581;84;21064;-59
2022/05/10 02:20:09;;;;;;;26.93;13.03;;;;;;;3.08;100.00;100460.75;1676828;83;21669;-59
2022/05/10 02:22:44;;;;;;;24.47;13.58;;;;;;;3.09;100.00;100463.72;1724415;82;21116;-59
2022/05/10 02:25:17;;;;;;;26.23;13.75;;;;;;;3.07;100.00;100454.21;1731007;82;21044;-57
2022/05/10 02:27:52;;;;;;;26.27;13.25;;;;;;;3.00;100.00;100459.59;1734689;81;21006;-58
2022/05/10 02:30:23;;;;;;;28.40;12.23;;;;;;;2.97;100.00;100465.38;1737680;81;21133;-59
2022/05/10 02:33:07;;;;;;;29.20;13.60;;;;;;;2.96;100.00;100461.86;1736448;81;21050;-59
2022/05/10 02:35:55;;;;;;;27.15;13.10;;;;;;;3.01;100.00;100460.70;1732425;82;21047;-59
2022/05/10 02:38:32;;;;;;;30.08;13.00;;;;;;;3.08;100.00;100463.95;1691627;84;21562;-59
2022/05/10 02:41:01;;;;;;;23.93;12.43;;;;;;;3.01;100.00;100455.33;1732265;81;21551;-59
2022/05/10 02:43:51;;;;;;;28.50;12.35;;;;;;;3.01;100.00;100458.56;1705303;83;21560;-59
2022/05/10 02:46:17;;;;;;;27.77;12.07;;;;;;;3.00;100.00;100459.59;1731804;81;21058;-59
2022/05/10 02:48:45;;;;;;;;;;;;;;;3.02;100.00;100466.92;1731023;81;21038;-59
2022/05/10 02:51:11;;;;;;;23.35;11.55;;;;;;;3.10;100.00;100468.59;1730383;82;20473;-59
2022/05/10 02:53:38;;;;;;;29.18;12.43;;;;;;;3.12;100.00;100475.41;1703969;82;21109;-59
2022/05/10 02:56:07;;;;;;;25.32;12.07;;;;;;;3.15;100.00;100468.81;1734875;81;21050;-59
2022/05/10 02:58:59;;;;;;;25.30;12.37;;;;;;;3.13;100.00;100468.17;1738593;81;21056;-59
2022/05/10 03:02:15;;;;;;;23.30;11.90;;;;;;;3.12;100.00;100465.20;1730823;81;21062;-59
2022/05/10 03:04:44;;;;;;;29.48;12.60;;;;;;;3.16;100.00;100466.41;1738561;81;21063;-59
2022/05/10 03:07:11;;;;;;;20.12;11.28;;;;;;;3.23;100.00;100464.05;1741268;81;21630;-59
2022/05/10 03:09:37;;;;;;;23.38;11.97;;;;;;;3.31;100.00;100464.36;1741331;81;21075;-59
2022/05/10 03:12:06;;;;;;;24.25;12.13;;;;;;;3.35;100.00;100465.61;1729694;82;21565;-59
2022/05/10 03:14:32;;;;;;;23.02;11.73;;;;;;;3.35;100.00;100466.95;1734923;81;21380;-59
2022/05/10 03:16:59;;;;;;;22.07;11.45;;;;;;;3.38;100.00;100469.22;1734571;81;21003;-59
2022/05/10 03:19:25;;;;;;;24.00;11.70;;;;;;;3.40;100.00;100466.63;1718168;81;21623;-59
2022/05/10 03:21:52;;;;;;;25.88;11.25;;;;;;;3.47;100.00;100472.84;1743326;82;21007;-60
2022/05/10 03:24:18;;;;;;;21.55;11.88;;;;;;;3.55;100.00;100469.11;1743742;81;21086;-59
2022/05/10 03:26:47;;;;;;;27.55;11.55;;;;;;;3.64;100.00;100467.05;1739477;81;20997;-59
2022/05/10 03:29:15;;;;;;;25.12;11.75;;;;;;;3.67;100.00;100468.80;1745864;81;21039;-59
2022/05/10 03:31:42;;;;;;;24.35;11.08;;;;;;;3.72;100.00;100474.36;1742469;82;21519;-59
2022/05/10 03:36:56;;;;;;;21.87;11.30;;;;;;;3.93;100.00;100471.97;1703330;83;21145;-60
2022/05/10 03:39:23;;;;;;;22.82;11.43;;;;;;;4.24;100.00;100468.04;1729395;81;21135;-61
2022/05/10 03:41:49;;;;;;;;;;;;;;;4.59;100.00;100473.06;1742979;81;21031;-60
2022/05/10 03:44:16;;;;;;;16.90;9.65;;;;;;;4.97;100.00;100473.88;1737332;81;20126;-61
2022/05/10 03:46:45;;;;;;;18.17;9.55;;;;;;;5.20;100.00;100452.56;1745850;82;21044;-58
2022/05/10 03:49:11;;;;;;;20.35;9.93;;;;;;;5.65;100.00;100458.61;1736785;82;21035;-59
2022/05/10 03:51:38;;;;;;;18.60;9.70;;;;;;;6.04;100.00;100451.17;1742835;82;21874;-60
2022/05/10 03:54:04;;;;;;;17.02;9.70;;;;;;;6.40;100.00;100445.75;1741634;81;21079;-59
2022/05/10 03:56:31;;;;;;;16.87;8.48;;;;;;;6.72;100.00;100445.84;1724681;82;21056;-59
2022/05/10 03:58:59;;;;;;;17.05;8.58;;;;;;;7.06;100.00;100449.71;1744472;81;21067;-60
2022/05/10 04:01:27;;;;;;;13.48;7.20;;;;;;;7.38;100.00;100453.78;1737940;81;21096;-60
2022/05/10 04:03:53;;;;;;;;;;;;;;;7.64;100.00;100446.27;1703657;82;21330;-59
2022/05/10 04:06:20;;;;;;;15.45;7.40;;;;;;;7.94;100.00;100442.88;1684066;84;20155;-61
2022/05/10 04:08:46;;;;;;;12.00;6.65;;;;;;;8.19;100.00;100442.08;1736436;81;21570;-59
2022/05/10 04:11:13;;;;;;;11.88;7.65;;;;;;;8.55;100.00;100444.20;1734990;82;21057;-60
2022/05/10 04:13:41;;;;;;;16.67;8.63;;;;;;;8.93;100.00;100443.03;1742584;81;21071;-59
2022/05/10 04:16:07;;;;;;;14.30;8.23;;;;;;;9.25;100.00;100444.16;1746124;81;20951;-59
2022/05/10 04:18:34;;;;;;;;;;;;;;;9.49;100.00;100445.63;1735362;81;21446;-59
2022/05/10 04:21:01;;;;;;;14.73;7.50;;;;;;;9.70;100.00;100444.61;1741498;81;20118;-59
2022/05/10 04:23:28;;;;;;;15.55;8.03;;;;;;;9.75;100.00;100444.67;1737338;82;20991;-59
2022/05/10 04:25:54;;;;;;;18.25;8.28;;;;;;;9.97;100.00;100445.55;1736490;81;21445;-59
2022/05/10 04:28:20;;;;;;;15.25;8.68;;;;;;;10.23;100.00;100447.59;1740850;81;21046;-59
2022/05/10 04:30:47;;;;;;;16.75;9.05;;;;;;;10.55;100.00;100444.99;1738442;81;21090;-59
2022/05/10 04:33:13;;;;;;;18.45;8.78;;;;;;;10.79;100.00;100442.80;1728722;82;21032;-60
2022/05/10 04:35:40;;;;;;;18.30;9.33;;;;;;;10.98;100.00;100440.81;1745586;81;21502;-59
2022/05/10 04:38:08;;;;;;;19.02;9.98;;;;;;;11.13;100.00;100443.41;1739414;82;21114;-59
2022/05/10 04:43:21;;;;;;;18.77;10.58;;;;;;;11.41;100.00;100441.21;1743203;81;21064;-59
2022/05/10 04:45:50;;;;;;;21.15;12.40;;;;;;;11.60;100.00;100442.18;1739224;81;21111;-59
2022/05/10 04:48:16;;;;;;;;;;;;;;;11.73;100.00;100439.02;1732712;81;21109;-59
2022/05/10 04:50:42;;;;;;;22.67;12.50;;;;;;;11.86;100.00;100438.05;1733874;81;20903;-60
2022/05/10 04:53:09;;;;;;;;;;;;;;;11.95;100.00;100434.27;1729014;81;21091;-60
2022/05/10 04:55:35;;;;;;;17.53;9.90;;;;;;;12.25;100.00;100442.64;1746178;81;20099;-59
2022/05/10 04:58:02;;;;;;;19.62;10.05;;;;;;;12.45;99.28;100439.98;1747545;81;21067;-60
2022/05/10 05:00:30;;;;;;;16.00;9.40;;;;;;;12.60;82.63;100439.77;1745966;81;21549;-60
2022/05/10 05:02:56;;;;;;;21.30;9.08;;;;;;;12.58;85.78;100449.58;1742500;81;21057;-59
2022/05/10 05:05:24;;;;;;;17.00;9.50;;;;;;;12.57;81.75;100447.14;1755336;80;21031;-59
2022/05/10 05:07:50;;;;;;;16.57;9.10;;;;;;;12.65;83.31;100436.50;1727485;81;21093;-60
2022/05/10 05:10:17;;;;;;;17.00;9.58;;;;;;;12.78;83.30;100443.38;1758085;80;21101;-59
2022/05/10 05:12:43;;;;;;;14.95;9.08;;;;;;;13.00;80.71;100443.16;1758879;81;21557;-61
2022/05/10 05:15:11;;;;;;;16.48;9.50;;;;;;;13.20;81.96;100447.31;1730507;81;21102;-62
2022/05/10 05:17:38;;;;;;;16.50;8.45;;;;;;;13.32;73.30;100443.79;1751781;81;21037;-62
2022/05/10 05:20:05;;;;;;;;;;;;;;;13.35;68.10;100448.70;1762954;80;21477;-61
2022/05/10 05:22:32;;;;;;;15.28;8.58;;;;;;;13.46;74.23;100450.36;1755187;81;20382;-61
2022/05/10 05:24:58;;;;;;;14.63;7.97;;;;;;;13.51;77.82;100445.41;1727617;82;21033;-61
2022/05/10 05:27:24;;;;;;;;;;;;;;;13.63;74.81;100452.80;1740058;81;20987;-60
2022/05/10 05:29:52;;;;;;;11.73;7.03;;;;;;;13.80;69.28;100448.69;1727140;81;20126;-61
2022/05/10 05:32:21;;;;;;;12.25;7.65;;;;;;;13.75;72.80;100455.52;1721964;83;21038;-61
2022/05/10 05:34:47;;;;;;;13.20;7.20;;;;;;;13.93;64.04;100447.28;1714608;82;21077;-61
2022/05/10 05:40:11;;;;;;;13.88;7.50;;;;;;;14.08;53.35;100432.75;1705596;83;21073;-62
2022/05/10 05:42:38;;;;;;;11.68;7.58;;;;;;;14.33;55.52;100438.15;1719150;83;21102;-61
2022/05/10 05:45:07;;;;;;;10.68;7.10;;;;;;;14.47;55.31;100435.11;1695378;84;21167;-61
2022/05/10 05:47:34;;;;;;;9.60;6.20;;;;;;;14.60;50.67;100425.45;1674271;84;21052;-61
2022/05/10 05:50:06;;;;;;;15.25;7.22;;;;;;;14.64;51.20;100423.24;1704240;83;21040;-61
2022/05/10 05:52:34;;;;;;;9.63;6.47;;;;;;;14.80;51.63;100428.93;1702078;83;21141;-61
2022/05/10 05:55:00;;;;;;;12.33;6.22;;;;;;;15.14;51.77;100428.15;1694191;83;21067;-61
2022/05/10 05:57:27;;;;;;;13.83;7.12;;;;;;;15.37;46.87;100426.08;1690098;83;21583;-60
2022/05/10 05:59:55;;;;;;;12.07;6.12;;;;;;;15.43;46.13;100428.48;1673370;84;21656;-61
2022/05/10 06:02:22;;;;;;;10.85;5.78;;;;;;;15.48;44.37;100425.44;1695325;83;21077;-59
2022/05/10 06:04:49;;;;;;;13.10;6.40;;;;;;;15.47;42.02;100424.61;1664862;85;21087;-60
2022/05/10 06:07:16;;;;;;;13.68;6.30;;;;;;;15.47;42.13;100422.42;1675689;85;21084;-61
2022/05/10 06:09:43;;;;;;;12.03;7.05;;;;;;;15.51;40.93;100422.14;1661214;85;21091;-62
2022/05/10 06:12:12;;;;;;;11.63;6.03;;;;;;;15.66;41.63;100418.69;1662007;85;21040;-61
2022/05/10 06:14:38;;;;;;;11.40;5.62;;;;;;;15.93;39.32;100415.42;1656343;85;21032;-62
2022/05/10 06:17:05;;;;;;;11.05;6.30;;;;;;;16.00;38.68;100413.16;1659286;85;21054;-61
2022/05/10 06:19:36;;;;;;;9.73;6.00;;;;;;;16.08;38.35;100413.07;1625180;85;21094;-61
2022/05/10 06:22:03;;;;;;;9.63;5.55;;;;;;;16.11;38.92;100410.56;1656307;84;21521;-62
2022/05/10 06:24:29;;;;;;;12.45;6.08;;;;;;;16.24;39.81;100404.91;1701024;83;21047;-62
2022/05/10 06:26:56;;;;;;;9.98;5.87;;;;;;;16.52;37.03;100408.12;1706500;83;21073;-61
2022/05/10 06:29:23;;;;;;;11.83;5.70;;;;;;;16.56;36.33;100405.63;1707709;83;21138;-61
2022/05/10 06:31:50;;;;;;;9.73;5.83;;;;;;;16.57;35.54;100405.36;1663403;83;21119;-62
2022/05/10 06:34:17;;;;;;;8.83;5.15;;;;;;;16.51;35.59;100407.06;1675953;84;21117;-62
2022/05/10 06:36:44;;;;;;;6.60;4.20;;;;;;;16.56;34.92;100411.13;1675151;83;21447;-61
2022/05/10 06:39:10;;;;;;;7.42;4.35;;;;;;;16.59;34.65;100406.41;1714282;83;21046;-58
2022/05/10 06:41:37;;;;;;;7.62;4.28;;;;;;;16.73;34.21;100401.27;1702351;83;21035;-62
2022/05/10 06:44:04;;;;;;;6.72;3.52;;;;;;;16.83;33.71;100408.55;1700710;83;21600;-61
2022/05/10 06:46:34;;;;;;;7.22;3.25;;;;;;;16.81;33.62;100406.66;1656419;84;21043;-61
2022/05/10 06:49:04;;;;;;;7.67;3.75;;;;;;;16.81;32.74;100400.61;1708947;83;21549;-61
2022/05/10 06:51:30;;;;;;;5.92;2.80;;;;;;;16.93;32.81;100396.05;1701577;83;20997;-60
2022/05/10 06:53:57;;;;;;;7.50;3.70;;;;;;;17.01;32.43;100401.41;1702121;83;21102;-60
2022/05/10 06:56:25;;;;;;;6.92;3.52;;;;;;;16.90;33.07;100378.75;1704447;83;20995;-61
2022/05/10 06:58:52;;;;;;;7.17;3.52;;;;;;;17.16;31.95;100398.44;1668456;83;21573;-62
2022/05/10 07:01:18;;;;;;;8.68;3.70;;;;;;;17.17;31.23;100404.20;1699110;83;21058;-63
2022/05/10 07:03:47;;;;;;;5.62;2.60;;;;;;;17.07;30.34;100396.94;1703086;81;21166;-63
2022/05/10 07:06:19;;;;;;;6.42;2.47;;;;;;;16.96;29.65;100392.70;1745575;82;20982;-61
2022/05/10 07:08:46;;;;;;;5.85;2.70;;;;;;;17.01;30.62;100383.53;1741885;80;21024;-63
2022/05/10 07:11:12;;;;;;;4.40;2.70;;;;;;;17.06;30.41;100387.59;1708481;82;21165;-61
2022/05/10 07:13:40;;;;;;;6.28;2.95;;;;;;;17.05;30.86;100384.58;1714526;83;21014;-62
2022/05/10 07:17:47;;;;;;;7.37;3.70;;;;;;;17.41;30.48;100378.20;1793313;78;23440;-61
2022/05/10 07:20:14;;;;;;;7.03;3.42;;;;;;;17.28;31.57;100384.49;1765572;80;21015;-61
2022/05/10 07:22:41;;;;;;;6.37;2.98;;;;;;;17.33;30.50;100376.13;1757064;81;21655;-61
2022/05/10 07:25:08;;;;;;;4.33;2.30;;;;;;;17.45;31.41;100377.05;1768333;80;20965;-62
2022/05/10 07:27:35;;;;;;;7.03;2.27;;;;;;;17.77;29.74;100376.23;1726326;82;21037;-63
2022/05/10 07:30:02;;;;;;;5.12;2.70;;;;;;;17.88;28.58;100369.41;1750197;80;21045;-61
2022/05/10 07:32:29;;;;;;;3.62;1.47;;;;;;;17.82;28.43;100366.48;1690156;81;20978;-62
2022/05/10 07:34:56;;;;;;;3.40;1.50;;;;;;;17.53;28.05;100361.78;1773635;80;20983;-62
2022/05/10 07:37:22;;;;;;;2.15;1.10;;;;;;;17.41;28.81;100361.70;1778473;80;21501;-61
2022/05/10 07:39:49;;;;;;;3.22;1.07;;;;;;;17.55;29.02;100363.09;1754803;80;21540;-62
2022/05/10 07:42:15;;;;;;;3.33;1.15;;;;;;;17.67;27.92;100364.03;1750161;80;21022;-61
2022/05/10 07:44:43;;;;;;;4.33;1.82;;;;;;;17.45;27.99;100358.33;1748868;80;21034;-60
2022/05/10 07:47:09;;;;;;;4.55;1.35;;;;;;;17.31;28.29;100348.67;1761589;80;21037;-61
2022/05/10 07:49:36;;;;;;;4.28;2.10;;;;;;;17.09;28.84;100345.73;1755638;81;21556;-61
2022/05/10 07:52:05;;;;;;;5.17;2.25;;;;;;;17.09;28.84;100360.30;1753999;80;21043;-61
2022/05/10 07:54:31;;;;;;;4.47;2.20;;;;;;;16.93;29.49;100345.17;1749246;80;21100;-61
2022/05/10 07:56:58;;;;;;;5.80;2.95;;;;;;;16.96;30.05;100343.75;1754273;81;21704;-60
2022/05/10 07:59:28;;;;;;;3.83;1.90;;;;;;;17.12;29.92;100343.75;1718678;81;21129;-61
2022/05/10 08:01:54;;;;;;;5.00;1.77;;;;;;;17.17;29.30;100337.62;1692252;84;21625;-62
2022/05/10 08:04:22;;;;;;;5.37;2.58;;;;;;;17.06;28.88;100338.09;1716992;82;21550;-62
2022/05/10 08:06:49;;;;;;;4.80;2.70;;;;;;;16.88;30.14;100334.24;1697876;82;21096;-62
2022/05/10 08:09:17;;;;;;;3.95;2.05;;;;;;;16.93;31.04;100334.97;1710048;82;21050;-61
2022/05/10 08:11:46;;;;;;;3.87;1.60;;;;;;;17.06;30.29;100330.66;1700273;82;21529;-62
2022/05/10 08:14:14;;;;;;;4.87;1.50;;;;;;;17.12;29.69;100330.82;1712527;82;21082;-62
2022/05/10 08:16:41;;;;;;;3.10;1.80;;;;;;;17.11;29.26;100328.39;1707566;82;21076;-63
2022/05/10 08:19:07;;;;;;;2.25;1.30;;;;;;;16.88;29.88;100327.37;1755890;80;21094;-63
2022/05/10 08:21:33;;;;;;;2.27;0.90;;;;;;;16.81;29.72;100310.44;1743290;80;21049;-63
2022/05/10 08:24:01;;;;;;;2.22;0.90;;;;;;;16.81;30.30;100323.62;1745915;82;21047;-62
2022/05/10 08:26:27;;;;;;;3.15;0.95;;;;;;;16.99;29.75;100309.59;1768101;80;21090;-63
2022/05/10 08:28:54;;;;;;;3.30;0.80;;;;;;;17.08;29.85;100328.41;1734138;80;21082;-62
2022/05/10 08:31:20;;;;;;;1.42;0.70;;;;;;;17.09;29.58;100323.17;1759940;80;21556;-63
2022/05/10 08:33:48;;;;;;;2.22;0.70;;;;;;;17.18;29.39;100313.69;1746609;82;21101;-63
2022/05/10 08:36:14;;;;;;;2.77;1.10;;;;;;;17.34;30.17;100310.36;1739409;82;20983;-61
2022/05/10 08:38:41;;;;;;;1.90;0.75;;;;;;;17.56;29.04;100307.48;1751890;81;21525;-63
2022/05/10 08:41:24;;;;;;;2.75;0.98;;;;;;;17.69;28.51;100302.58;1736180;82;21533;-63
2022/05/10 08:44:00;;;;;;;2.02;0.68;;;;;;;17.72;28.33;100305.54;1753326;80;21115;-63
2022/05/10 08:46:38;;;;;;;4.53;0.80;;;;;;;17.45;29.04;100311.55;1748638;80;21053;-63
2022/05/10 08:49:29;;;;;;;2.92;0.80;;;;;;;17.67;28.35;100308.96;1748848;80;21762;-63
2022/05/10 08:51:55;;;;;;;4.45;0.90;;;;;;;17.63;28.00;100294.17;1750430;80;21053;-62
2022/05/10 08:54:22;;;;;;;2.65;1.10;;;;;;;17.52;28.90;100279.75;1735791;81;21105;-62
2022/05/10 08:56:57;;;;;;;2.10;0.80;;;;;;;17.84;28.12;100287.96;1745605;81;21129;-63
2022/05/10 08:59:52;;;;;;;2.75;0.93;;;;;;;17.85;27.53;100290.16;1765269;80;21531;-63
2022/05/10 09:02:26;;;;;;;2.58;1.00;;;;;;;17.57;28.15;100282.42;1749133;80;21051;-61
2022/05/10 09:05:04;;;;;;;3.83;1.50;;;;;;;17.71;28.30;100278.33;1747971;80;20997;-61
2022/05/10 09:07:40;;;;;;;2.85;1.62;;;;;;;17.95;28.25;100279.48;1744342;81;21103;-62
2022/05/10 09:10:49;;;;;;;3.98;1.47;;;;;;;17.87;28.39;100272.75;1753532;80;21038;-62
2022/05/10 09:13:17;;;;;;;5.42;1.95;;;;;;;17.66;29.14;100264.09;1732953;80;21560;-62
2022/05/10 09:16:00;;;;;;;4.10;1.80;;;;;;;17.81;27.99;100266.55;1749174;82;21002;-63
2022/05/10 09:18:49;;;;;;;4.03;1.95;;;;;;;17.84;28.50;100260.98;1759802;80;21090;-62
2022/05/10 09:21:27;;;;;;;7.33;1.93;;;;;;;17.59;29.20;100256.80;1781852;80;21573;-63
2022/05/10 09:24:21;;;;;;;4.25;1.85;;;;;;;17.40;28.58;100257.41;1765435;80;21179;-62
2022/05/10 09:26:53;;;;;;;5.78;2.60;;;;;;;17.11;28.86;100252.16;1736228;82;21074;-62
2022/05/10 09:29:37;;;;;;;5.40;3.08;;;;;;;16.87;29.43;100252.86;1748928;80;21548;-62
2022/05/10 09:35:22;;;;;;;8.55;3.75;;;;;;;16.76;29.46;100240.39;1749728;80;20966;-63
2022/05/10 09:38:06;;;;;;;5.70;3.55;;;;;;;16.50;30.45;100250.15;1756073;80;21111;-63
2022/05/10 09:40:46;;;;;;;10.60;4.47;;;;;;;16.43;30.82;100235.41;1725069;82;20971;-61
2022/05/10 09:43:22;;;;;;;8.60;4.35;;;;;;;16.46;30.97;100235.36;1742505;80;21067;-63
2022/05/10 09:46:11;;;;;;;6.47;3.87;;;;;;;16.56;31.30;100229.19;1755540;80;20973;-63
2022/05/10 09:48:40;;;;;;;7.00;4.00;;;;;;;16.55;31.30;100222.57;1705369;82;21026;-63
2022/05/10 09:51:36;;;;;;;6.17;3.60;;;;;;;16.39;30.97;100219.27;1736494;82;21030;-63
2022/05/10 09:54:22;;;;;;;7.95;5.17;;;;;;;16.16;30.51;100214.66;1766672;80;21066;-63
2022/05/10 09:56:56;;;;;;;9.48;5.50;;;;;;;16.03;31.29;100209.35;1735754;81;21503;-63
2022/05/10 09:59:33;;;;;;;7.95;4.03;;;;;;;16.12;32.21;100207.56;1753368;80;21037;-63
2022/05/10 10:02:01;;;;;;;6.12;3.17;;;;;;;16.33;32.23;100206.14;1738949;81;21061;-63
2022/05/10 10:04:37;;;;;;;7.85;4.17;;;;;;;16.35;30.39;100209.98;1740564;82;21150;-63
2022/05/10 10:07:13;;;;;;;8.28;4.25;;;;;;;16.20;30.12;100200.03;1740049;81;21558;-63
2022/05/10 10:09:47;;;;;;;14.13;5.22;;;;;;;16.15;32.06;100196.01;1729812;82;21137;-63
2022/05/10 10:12:37;;;;;;;9.83;5.37;;;;;;;16.17;30.67;100192.39;1739608;81;21098;-63
2022/05/10 10:15:26;;;;;;;8.65;4.87;;;;;;;16.11;29.45;100190.84;1729516;82;21010;-62
2022/05/10 10:17:56;;;;;;;12.95;5.42;;;;;;;16.07;32.22;100185.68;1747715;80;21131;-63
2022/05/10 10:20:49;;;;;;;10.93;6.05;;;;;;;16.21;32.38;100193.44;1760184;80;21086;-62
2022/05/10 10:23:40;;;;;;;9.05;4.60;;;;;;;16.32;31.14;100193.55;1736735;81;21117;-61
2022/05/10 10:26:31;;;;;;;6.65;3.72;;;;;;;16.31;30.63;100182.28;1732976;82;20991;-63
2022/05/10 10:29:20;;;;;;;6.62;2.95;;;;;;;16.26;31.26;100176.07;1743274;81;21083;-63
2022/05/10 10:32:07;;;;;;;6.90;2.50;;;;;;;16.32;31.37;100165.25;1764834;80;21090;-61
2022/05/10 10:34:49;;;;;;;;;;;;;;;16.33;31.21;100170.42;1695608;82;21105;-62
2022/05/10 10:37:40;;;;;;;6.40;3.40;;;;;;;16.32;31.67;100174.31;1738494;82;20420;-62
2022/05/10 10:40:35;;;;;;;10.13;5.87;;;;;;;16.32;31.67;100172.94;1723548;81;20991;-61
2022/05/10 10:43:28;;;;;;;10.00;4.95;;;;;;;16.50;32.43;100180.89;1729959;82;21019;-61
2022/05/10 10:46:07;;;;;;;8.83;4.20;;;;;;;16.58;29.26;100175.30;1730503;82;20962;-61
2022/05/10 10:48:47;;;;;;;10.25;5.00;;;;;;;16.32;29.15;100163.88;1663855;82;21079;-60
2022/05/10 10:51:17;;;;;;;11.35;6.65;;;;;;;16.21;30.08;100145.36;1732854;82;21005;-61
2022/05/10 10:53:45;;;;;;;11.03;5.90;;;;;;;16.33;30.67;100148.45;1731554;81;21054;-63
2022/05/10 10:56:29;;;;;;;10.65;4.25;;;;;;;16.49;31.22;100146.28;1724567;81;21475;-62
2022/05/10 10:59:31;;;;;;;9.38;4.62;;;;;;;16.56;30.23;100141.23;1732028;82;21063;-61
2022/05/10 11:02:27;;;;;;;10.30;5.50;;;;;;;16.57;30.84;100137.94;1746994;82;21480;-61
2022/05/10 11:05:14;;;;;;;11.88;6.28;;;;;;;16.66;30.36;100138.30;1721826;81;21039;-63
2022/05/10 11:07:56;;;;;;;;;;;;;;;16.55;29.29;100134.07;1737058;81;21643;-62
2022/05/10 11:10:39;;;;;;;12.45;6.28;;;;;;;16.54;29.92;100124.22;1741961;82;20161;-61
2022/05/10 11:13:46;;;;;;;15.10;7.55;;;;;;;16.53;31.48;100126.70;1741493;82;21588;-62
2022/05/10 11:16:24;;;;;;;17.32;8.88;;;;;;;16.70;29.40;100123.40;1723256;81;20999;-62
2022/05/10 11:19:30;;;;;;;13.62;7.85;;;;;;;16.68;29.60;100125.09;1741833;80;21039;-61
2022/05/10 11:22:17;;;;;;;13.85;6.67;;;;;;;16.69;29.74;100116.27;1773655;80;21028;-61
2022/05/10 11:24:58;;;;;;;11.08;4.95;;;;;;;16.71;30.22;100105.80;1756751;80;21101;-62
2022/05/10 11:28:02;;;;;;;10.28;5.10;;;;;;;16.70;29.34;100100.85;1772868;80;21050;-62
2022/05/10 11:30:40;;;;;;;10.10;4.70;;;;;;;16.73;29.46;100104.36;1714811;83;21097;-63
2022/05/10 11:33:41;;;;;;;16.40;8.28;;;;;;;16.66;29.71;100094.88;1682976;84;21093;-63
2022/05/10 11:36:16;;;;;;;20.23;10.78;;;;;;;16.68;29.36;100094.04;1741885;81;21088;-61
2022/05/10 11:39:11;;;;;;;17.50;8.63;;;;;;;16.60;29.69;100083.18;1778820;80;21070;-61
2022/05/10 11:42:01;;;;;;;23.15;9.20;;;;;;;16.61;29.52;100083.45;1775000;80;21031;-63
2022/05/10 11:44:48;;;;;;;21.57;9.95;;;;;;;16.61;29.07;100083.45;1756346;81;21050;-62
2022/05/10 11:47:40;;;;;;;15.38;8.98;;;;;;;16.60;29.62;100074.94;1748250;80;21552;-61
2022/05/10 11:50:33;;;;;;;15.53;8.60;;;;;;;16.63;29.98;100063.88;1762547;80;21018;-62
2022/05/10 11:53:31;;;;;;;15.80;8.60;;;;;;;16.74;32.08;100066.70;1755105;80;21062;-60
2022/05/10 11:56:02;;;;;;;13.48;8.18;;;;;;;16.96;31.57;100060.50;1746969;81;21049;-62
2022/05/10 11:58:30;;;;;;;15.48;8.58;;;;;;;17.08;30.67;100051.16;1759469;80;21038;-62
2022/05/10 12:01:05;;;;;;;19.40;9.00;;;;;;;17.07;31.05;100049.55;1784439;80;20983;-62
2022/05/10 12:03:42;;;;;;;17.02;8.58;;;;;;;17.08;31.89;100047.84;1749989;80;21040;-62
2022/05/10 12:06:27;;;;;;;16.27;7.47;;;;;;;17.21;31.12;100042.91;1730020;81;21018;-62